sensor_id;sensor_type;location;lat;lon;timestamp;temperature;humidity
65239;SHT30;51827;51.186;6.926;2024-03-07T00:00:13;19.27;52.84
65239;SHT30;51827;51.186;6.926;2024-03-07T00:01:13;19.26;52.87
65239;SHT30;51827;51.186;6.926;2024-03-07T00:02:13;19.26;52.89
65239;SHT30;51827;51.186;6.926;2024-03-07T00:03:14;19.26;52.85
65239;SHT30;51827;51.186;6.926;2024-03-07T00:04:14;19.27;52.88
65239;SHT30;51827;51.186;6.926;2024-03-07T00:05:16;19.24;52.87
65239;SHT30;51827;51.186;6.926;2024-03-07T00:06:16;19.24;52.90
65239;SHT30;51827;51.186;6.926;2024-03-07T00:07:17;19.24;52.84
65239;SHT30;51827;51.186;6.926;2024-03-07T00:08:17;19.24;52.90
65239;SHT30;51827;51.186;6.926;2024-03-07T00:09:17;19.26;52.85
65239;SHT30;51827;51.186;6.926;2024-03-07T00:10:18;19.26;52.89
65239;SHT30;51827;51.186;6.926;2024-03-07T00:11:18;19.27;52.88
65239;SHT30;51827;51.186;6.926;2024-03-07T00:12:18;19.27;52.84
65239;SHT30;51827;51.186;6.926;2024-03-07T00:13:18;19.24;52.84
65239;SHT30;51827;51.186;6.926;2024-03-07T00:14:19;19.26;52.81
65239;SHT30;51827;51.186;6.926;2024-03-07T00:15:19;19.26;52.81
65239;SHT30;51827;51.186;6.926;2024-03-07T00:16:19;19.24;52.81
65239;SHT30;51827;51.186;6.926;2024-03-07T00:17:19;19.26;52.76
65239;SHT30;51827;51.186;6.926;2024-03-07T00:18:20;19.24;52.77
65239;SHT30;51827;51.186;6.926;2024-03-07T00:19:20;19.24;52.80
65239;SHT30;51827;51.186;6.926;2024-03-07T00:20:20;19.23;52.77
65239;SHT30;51827;51.186;6.926;2024-03-07T00:21:21;19.23;52.80
65239;SHT30;51827;51.186;6.926;2024-03-07T00:22:21;19.24;52.83
65239;SHT30;51827;51.186;6.926;2024-03-07T00:23:21;19.22;52.78
65239;SHT30;51827;51.186;6.926;2024-03-07T00:24:22;19.23;52.74
65239;SHT30;51827;51.186;6.926;2024-03-07T00:25:22;19.22;52.69
65239;SHT30;51827;51.186;6.926;2024-03-07T00:26:22;19.22;52.71
65239;SHT30;51827;51.186;6.926;2024-03-07T00:27:23;19.23;52.68
65239;SHT30;51827;51.186;6.926;2024-03-07T00:28:23;19.23;52.73
65239;SHT30;51827;51.186;6.926;2024-03-07T00:29:23;19.24;52.68
65239;SHT30;51827;51.186;6.926;2024-03-07T00:30:23;19.24;52.68
65239;SHT30;51827;51.186;6.926;2024-03-07T00:31:24;19.22;52.69
65239;SHT30;51827;51.186;6.926;2024-03-07T00:32:24;19.22;52.71
65239;SHT30;51827;51.186;6.926;2024-03-07T00:33:24;19.23;52.71
65239;SHT30;51827;51.186;6.926;2024-03-07T00:34:25;19.23;52.71
65239;SHT30;51827;51.186;6.926;2024-03-07T00:35:25;19.20;52.70
65239;SHT30;51827;51.186;6.926;2024-03-07T00:36:25;19.22;52.70
65239;SHT30;51827;51.186;6.926;2024-03-07T00:37:25;19.19;52.67
65239;SHT30;51827;51.186;6.926;2024-03-07T00:38:26;19.20;52.69
65239;SHT30;51827;51.186;6.926;2024-03-07T00:39:26;19.20;52.66
65239;SHT30;51827;51.186;6.926;2024-03-07T00:40:26;19.18;52.68
65239;SHT30;51827;51.186;6.926;2024-03-07T00:41:26;19.23;52.69
65239;SHT30;51827;51.186;6.926;2024-03-07T00:42:27;19.20;52.63
65239;SHT30;51827;51.186;6.926;2024-03-07T00:43:27;19.22;52.61
65239;SHT30;51827;51.186;6.926;2024-03-07T00:44:27;19.22;52.65
65239;SHT30;51827;51.186;6.926;2024-03-07T00:45:27;19.22;52.65
65239;SHT30;51827;51.186;6.926;2024-03-07T00:46:28;19.22;52.62
65239;SHT30;51827;51.186;6.926;2024-03-07T00:47:29;19.19;52.62
65239;SHT30;51827;51.186;6.926;2024-03-07T00:48:29;19.20;52.56
65239;SHT30;51827;51.186;6.926;2024-03-07T00:49:29;19.20;52.56
65239;SHT30;51827;51.186;6.926;2024-03-07T00:50:30;19.19;52.56
65239;SHT30;51827;51.186;6.926;2024-03-07T00:51:30;19.20;52.57
65239;SHT30;51827;51.186;6.926;2024-03-07T00:52:30;19.23;52.51
65239;SHT30;51827;51.186;6.926;2024-03-07T00:53:31;19.23;52.56
65239;SHT30;51827;51.186;6.926;2024-03-07T00:54:31;19.19;52.56
65239;SHT30;51827;51.186;6.926;2024-03-07T00:55:31;19.20;52.56
65239;SHT30;51827;51.186;6.926;2024-03-07T00:56:31;19.20;52.56
65239;SHT30;51827;51.186;6.926;2024-03-07T00:57:32;19.18;52.57
65239;SHT30;51827;51.186;6.926;2024-03-07T00:58:32;19.18;52.52
65239;SHT30;51827;51.186;6.926;2024-03-07T00:59:32;19.18;52.51
65239;SHT30;51827;51.186;6.926;2024-03-07T01:00:32;19.18;52.52
65239;SHT30;51827;51.186;6.926;2024-03-07T01:01:33;19.16;52.55
65239;SHT30;51827;51.186;6.926;2024-03-07T01:02:33;19.19;52.51
65239;SHT30;51827;51.186;6.926;2024-03-07T01:03:33;19.16;52.57
65239;SHT30;51827;51.186;6.926;2024-03-07T01:04:33;19.19;52.50
65239;SHT30;51827;51.186;6.926;2024-03-07T01:05:34;19.18;52.46
65239;SHT30;51827;51.186;6.926;2024-03-07T01:06:35;19.19;52.49
65239;SHT30;51827;51.186;6.926;2024-03-07T01:07:35;19.19;52.47
65239;SHT30;51827;51.186;6.926;2024-03-07T01:08:36;19.15;52.48
65239;SHT30;51827;51.186;6.926;2024-03-07T01:09:36;19.16;52.49
65239;SHT30;51827;51.186;6.926;2024-03-07T01:10:37;19.18;52.44
65239;SHT30;51827;51.186;6.926;2024-03-07T01:11:37;19.16;52.45
65239;SHT30;51827;51.186;6.926;2024-03-07T01:12:37;19.18;52.50
65239;SHT30;51827;51.186;6.926;2024-03-07T01:13:41;19.16;52.52
65239;SHT30;51827;51.186;6.926;2024-03-07T01:14:41;19.19;52.49
65239;SHT30;51827;51.186;6.926;2024-03-07T01:15:41;19.18;52.48
65239;SHT30;51827;51.186;6.926;2024-03-07T01:16:42;19.19;52.48
65239;SHT30;51827;51.186;6.926;2024-03-07T01:17:42;19.18;52.47
65239;SHT30;51827;51.186;6.926;2024-03-07T01:18:42;19.16;52.49
65239;SHT30;51827;51.186;6.926;2024-03-07T01:19:42;19.16;52.46
65239;SHT30;51827;51.186;6.926;2024-03-07T01:20:43;19.15;52.47
65239;SHT30;51827;51.186;6.926;2024-03-07T01:21:43;19.18;52.47
65239;SHT30;51827;51.186;6.926;2024-03-07T01:22:43;19.13;52.48
65239;SHT30;51827;51.186;6.926;2024-03-07T01:23:43;19.15;52.51
65239;SHT30;51827;51.186;6.926;2024-03-07T01:24:44;19.18;52.48
65239;SHT30;51827;51.186;6.926;2024-03-07T01:25:44;19.13;52.44
65239;SHT30;51827;51.186;6.926;2024-03-07T01:26:44;19.15;52.43
65239;SHT30;51827;51.186;6.926;2024-03-07T01:27:44;19.13;52.45
65239;SHT30;51827;51.186;6.926;2024-03-07T01:28:45;19.15;52.44
65239;SHT30;51827;51.186;6.926;2024-03-07T01:29:45;19.15;52.45
65239;SHT30;51827;51.186;6.926;2024-03-07T01:30:45;19.12;52.42
65239;SHT30;51827;51.186;6.926;2024-03-07T01:31:45;19.18;52.43
65239;SHT30;51827;51.186;6.926;2024-03-07T01:32:46;19.10;52.47
65239;SHT30;51827;51.186;6.926;2024-03-07T01:33:46;19.13;52.43
65239;SHT30;51827;51.186;6.926;2024-03-07T01:34:46;19.13;52.42
65239;SHT30;51827;51.186;6.926;2024-03-07T01:35:47;19.15;52.43
65239;SHT30;51827;51.186;6.926;2024-03-07T01:36:47;19.15;52.42
65239;SHT30;51827;51.186;6.926;2024-03-07T01:37:47;19.13;52.42
65239;SHT30;51827;51.186;6.926;2024-03-07T01:38:47;19.15;52.40
65239;SHT30;51827;51.186;6.926;2024-03-07T01:39:48;19.15;52.39
65239;SHT30;51827;51.186;6.926;2024-03-07T01:40:48;19.16;52.37
65239;SHT30;51827;51.186;6.926;2024-03-07T01:41:48;19.15;52.36
65239;SHT30;51827;51.186;6.926;2024-03-07T01:42:49;19.15;52.42
65239;SHT30;51827;51.186;6.926;2024-03-07T01:43:49;19.12;52.37
65239;SHT30;51827;51.186;6.926;2024-03-07T01:44:50;19.16;52.37
65239;SHT30;51827;51.186;6.926;2024-03-07T01:45:53;19.12;52.36
65239;SHT30;51827;51.186;6.926;2024-03-07T01:46:55;19.13;52.36
65239;SHT30;51827;51.186;6.926;2024-03-07T01:47:59;19.10;52.39
65239;SHT30;51827;51.186;6.926;2024-03-07T01:48:59;19.12;52.36
65239;SHT30;51827;51.186;6.926;2024-03-07T01:50:00;19.15;52.37
65239;SHT30;51827;51.186;6.926;2024-03-07T01:51:01;19.12;52.34
65239;SHT30;51827;51.186;6.926;2024-03-07T01:52:02;19.12;52.37
65239;SHT30;51827;51.186;6.926;2024-03-07T01:53:04;19.13;52.34
65239;SHT30;51827;51.186;6.926;2024-03-07T01:54:08;19.12;52.34
65239;SHT30;51827;51.186;6.926;2024-03-07T01:55:08;19.12;52.32
65239;SHT30;51827;51.186;6.926;2024-03-07T01:56:09;19.10;52.31
65239;SHT30;51827;51.186;6.926;2024-03-07T01:57:09;19.12;52.33
65239;SHT30;51827;51.186;6.926;2024-03-07T01:58:13;19.13;52.30
65239;SHT30;51827;51.186;6.926;2024-03-07T01:59:17;19.12;52.35
65239;SHT30;51827;51.186;6.926;2024-03-07T02:00:18;19.12;52.35
65239;SHT30;51827;51.186;6.926;2024-03-07T02:01:18;19.13;52.31
65239;SHT30;51827;51.186;6.926;2024-03-07T02:02:19;19.10;52.30
65239;SHT30;51827;51.186;6.926;2024-03-07T02:03:19;19.10;52.31
65239;SHT30;51827;51.186;6.926;2024-03-07T02:04:19;19.12;52.29
65239;SHT30;51827;51.186;6.926;2024-03-07T02:05:21;19.09;52.32
65239;SHT30;51827;51.186;6.926;2024-03-07T02:06:21;19.10;52.29
65239;SHT30;51827;51.186;6.926;2024-03-07T02:07:21;19.12;52.29
65239;SHT30;51827;51.186;6.926;2024-03-07T02:08:22;19.10;52.34
65239;SHT30;51827;51.186;6.926;2024-03-07T02:09:22;19.12;52.31
65239;SHT30;51827;51.186;6.926;2024-03-07T02:10:22;19.12;52.31
65239;SHT30;51827;51.186;6.926;2024-03-07T02:11:23;19.10;52.32
65239;SHT30;51827;51.186;6.926;2024-03-07T02:12:23;19.09;52.30
65239;SHT30;51827;51.186;6.926;2024-03-07T02:13:23;19.09;52.33
65239;SHT30;51827;51.186;6.926;2024-03-07T02:14:23;19.09;52.32
65239;SHT30;51827;51.186;6.926;2024-03-07T02:15:24;19.09;52.33
65239;SHT30;51827;51.186;6.926;2024-03-07T02:16:24;19.10;52.29
65239;SHT30;51827;51.186;6.926;2024-03-07T02:17:27;19.09;52.27
65239;SHT30;51827;51.186;6.926;2024-03-07T02:18:28;19.09;52.31
65239;SHT30;51827;51.186;6.926;2024-03-07T02:19:28;19.09;52.31
65239;SHT30;51827;51.186;6.926;2024-03-07T02:20:28;19.09;52.24
65239;SHT30;51827;51.186;6.926;2024-03-07T02:21:29;19.10;52.25
65239;SHT30;51827;51.186;6.926;2024-03-07T02:22:29;19.09;52.26
65239;SHT30;51827;51.186;6.926;2024-03-07T02:23:29;19.09;52.22
65239;SHT30;51827;51.186;6.926;2024-03-07T02:24:29;19.10;52.25
65239;SHT30;51827;51.186;6.926;2024-03-07T02:25:30;19.09;52.22
65239;SHT30;51827;51.186;6.926;2024-03-07T02:26:30;19.09;52.24
65239;SHT30;51827;51.186;6.926;2024-03-07T02:27:30;19.08;52.27
65239;SHT30;51827;51.186;6.926;2024-03-07T02:28:30;19.08;52.29
65239;SHT30;51827;51.186;6.926;2024-03-07T02:29:31;19.10;52.25
65239;SHT30;51827;51.186;6.926;2024-03-07T02:30:31;19.08;52.31
65239;SHT30;51827;51.186;6.926;2024-03-07T02:31:32;19.09;52.25
65239;SHT30;51827;51.186;6.926;2024-03-07T02:32:32;19.09;52.23
65239;SHT30;51827;51.186;6.926;2024-03-07T02:33:32;19.08;52.24
65239;SHT30;51827;51.186;6.926;2024-03-07T02:34:32;19.09;52.23
65239;SHT30;51827;51.186;6.926;2024-03-07T02:35:33;19.08;52.22
65239;SHT30;51827;51.186;6.926;2024-03-07T02:36:34;19.09;52.23
65239;SHT30;51827;51.186;6.926;2024-03-07T02:37:34;19.10;52.20
65239;SHT30;51827;51.186;6.926;2024-03-07T02:38:34;19.09;52.20
65239;SHT30;51827;51.186;6.926;2024-03-07T02:39:36;19.09;52.19
65239;SHT30;51827;51.186;6.926;2024-03-07T02:40:36;19.09;52.23
65239;SHT30;51827;51.186;6.926;2024-03-07T02:41:36;19.10;52.24
65239;SHT30;51827;51.186;6.926;2024-03-07T02:42:37;19.10;52.19
65239;SHT30;51827;51.186;6.926;2024-03-07T02:43:37;19.09;52.22
65239;SHT30;51827;51.186;6.926;2024-03-07T02:44:37;19.09;52.20
65239;SHT30;51827;51.186;6.926;2024-03-07T02:45:38;19.06;52.21
65239;SHT30;51827;51.186;6.926;2024-03-07T02:46:38;19.06;52.25
65239;SHT30;51827;51.186;6.926;2024-03-07T02:47:38;19.08;52.21
65239;SHT30;51827;51.186;6.926;2024-03-07T02:48:38;19.06;52.20
65239;SHT30;51827;51.186;6.926;2024-03-07T02:49:39;19.08;52.21
65239;SHT30;51827;51.186;6.926;2024-03-07T02:50:39;19.08;52.21
65239;SHT30;51827;51.186;6.926;2024-03-07T02:51:39;19.06;52.21
65239;SHT30;51827;51.186;6.926;2024-03-07T02:52:39;19.08;52.16
65239;SHT30;51827;51.186;6.926;2024-03-07T02:53:40;19.08;52.16
65239;SHT30;51827;51.186;6.926;2024-03-07T02:54:40;19.09;52.15
65239;SHT30;51827;51.186;6.926;2024-03-07T02:55:40;19.08;52.21
65239;SHT30;51827;51.186;6.926;2024-03-07T02:56:40;19.08;52.17
65239;SHT30;51827;51.186;6.926;2024-03-07T02:57:41;19.06;52.20
65239;SHT30;51827;51.186;6.926;2024-03-07T02:58:41;19.09;52.16
65239;SHT30;51827;51.186;6.926;2024-03-07T02:59:41;19.05;52.17
65239;SHT30;51827;51.186;6.926;2024-03-07T03:00:42;19.06;52.20
65239;SHT30;51827;51.186;6.926;2024-03-07T03:01:42;19.08;52.17
65239;SHT30;51827;51.186;6.926;2024-03-07T03:02:42;19.06;52.18
65239;SHT30;51827;51.186;6.926;2024-03-07T03:03:43;19.05;52.20
65239;SHT30;51827;51.186;6.926;2024-03-07T03:04:43;19.05;52.18
65239;SHT30;51827;51.186;6.926;2024-03-07T03:05:43;19.06;52.19
65239;SHT30;51827;51.186;6.926;2024-03-07T03:06:44;19.05;52.15
65239;SHT30;51827;51.186;6.926;2024-03-07T03:07:44;19.06;52.16
65239;SHT30;51827;51.186;6.926;2024-03-07T03:08:45;19.08;52.20
65239;SHT30;51827;51.186;6.926;2024-03-07T03:09:45;19.06;52.17
65239;SHT30;51827;51.186;6.926;2024-03-07T03:10:45;19.05;52.18
65239;SHT30;51827;51.186;6.926;2024-03-07T03:11:45;19.06;52.17
65239;SHT30;51827;51.186;6.926;2024-03-07T03:12:46;19.08;52.18
65239;SHT30;51827;51.186;6.926;2024-03-07T03:13:46;19.06;52.13
65239;SHT30;51827;51.186;6.926;2024-03-07T03:14:47;19.05;52.16
65239;SHT30;51827;51.186;6.926;2024-03-07T03:15:47;19.03;52.15
65239;SHT30;51827;51.186;6.926;2024-03-07T03:16:47;19.05;52.14
65239;SHT30;51827;51.186;6.926;2024-03-07T03:17:48;19.05;52.13
65239;SHT30;51827;51.186;6.926;2024-03-07T03:18:48;19.05;52.09
65239;SHT30;51827;51.186;6.926;2024-03-07T03:19:48;19.05;52.13
65239;SHT30;51827;51.186;6.926;2024-03-07T03:20:49;19.05;52.16
65239;SHT30;51827;51.186;6.926;2024-03-07T03:21:49;19.06;52.09
65239;SHT30;51827;51.186;6.926;2024-03-07T03:22:53;19.05;52.11
65239;SHT30;51827;51.186;6.926;2024-03-07T03:23:53;19.06;52.11
65239;SHT30;51827;51.186;6.926;2024-03-07T03:24:53;19.08;52.07
65239;SHT30;51827;51.186;6.926;2024-03-07T03:25:54;19.06;52.08
65239;SHT30;51827;51.186;6.926;2024-03-07T03:26:54;19.08;52.10
65239;SHT30;51827;51.186;6.926;2024-03-07T03:27:54;19.05;52.09
65239;SHT30;51827;51.186;6.926;2024-03-07T03:28:55;19.06;52.07
65239;SHT30;51827;51.186;6.926;2024-03-07T03:29:55;19.06;52.07
65239;SHT30;51827;51.186;6.926;2024-03-07T03:30:55;19.06;52.06
65239;SHT30;51827;51.186;6.926;2024-03-07T03:31:55;19.05;52.05
65239;SHT30;51827;51.186;6.926;2024-03-07T03:32:56;19.03;52.06
65239;SHT30;51827;51.186;6.926;2024-03-07T03:33:56;19.06;52.07
65239;SHT30;51827;51.186;6.926;2024-03-07T03:34:56;19.06;52.07
65239;SHT30;51827;51.186;6.926;2024-03-07T03:35:56;19.05;52.08
65239;SHT30;51827;51.186;6.926;2024-03-07T03:36:57;19.08;52.00
65239;SHT30;51827;51.186;6.926;2024-03-07T03:37:57;19.03;52.03
65239;SHT30;51827;51.186;6.926;2024-03-07T03:38:57;19.05;52.06
65239;SHT30;51827;51.186;6.926;2024-03-07T03:39:57;19.03;52.06
65239;SHT30;51827;51.186;6.926;2024-03-07T03:42:06;19.05;52.03
65239;SHT30;51827;51.186;6.926;2024-03-07T03:43:06;19.03;52.03
65239;SHT30;51827;51.186;6.926;2024-03-07T03:44:07;19.06;52.04
65239;SHT30;51827;51.186;6.926;2024-03-07T03:45:09;19.02;52.07
65239;SHT30;51827;51.186;6.926;2024-03-07T03:46:10;19.03;52.00
65239;SHT30;51827;51.186;6.926;2024-03-07T03:47:10;19.03;52.06
65239;SHT30;51827;51.186;6.926;2024-03-07T03:48:11;19.00;52.05
65239;SHT30;51827;51.186;6.926;2024-03-07T03:49:11;19.03;52.05
65239;SHT30;51827;51.186;6.926;2024-03-07T03:50:12;19.03;52.01
65239;SHT30;51827;51.186;6.926;2024-03-07T03:51:13;19.03;52.04
65239;SHT30;51827;51.186;6.926;2024-03-07T03:52:13;19.05;52.05
65239;SHT30;51827;51.186;6.926;2024-03-07T03:53:13;19.03;52.08
65239;SHT30;51827;51.186;6.926;2024-03-07T03:54:13;19.02;51.99
65239;SHT30;51827;51.186;6.926;2024-03-07T03:55:14;19.05;52.03
65239;SHT30;51827;51.186;6.926;2024-03-07T03:56:14;19.02;52.00
65239;SHT30;51827;51.186;6.926;2024-03-07T03:57:14;19.03;52.02
65239;SHT30;51827;51.186;6.926;2024-03-07T03:58:14;19.02;52.05
65239;SHT30;51827;51.186;6.926;2024-03-07T03:59:15;19.02;52.05
65239;SHT30;51827;51.186;6.926;2024-03-07T04:00:15;19.02;52.03
65239;SHT30;51827;51.186;6.926;2024-03-07T04:01:15;19.02;51.99
65239;SHT30;51827;51.186;6.926;2024-03-07T04:02:16;19.02;52.01
65239;SHT30;51827;51.186;6.926;2024-03-07T04:03:16;19.00;52.03
65239;SHT30;51827;51.186;6.926;2024-03-07T04:04:16;19.03;52.02
65239;SHT30;51827;51.186;6.926;2024-03-07T04:05:18;19.03;51.99
65239;SHT30;51827;51.186;6.926;2024-03-07T04:06:19;19.06;51.99
65239;SHT30;51827;51.186;6.926;2024-03-07T04:07:19;19.03;51.93
65239;SHT30;51827;51.186;6.926;2024-03-07T04:08:20;19.02;51.99
65239;SHT30;51827;51.186;6.926;2024-03-07T04:09:20;19.03;51.99
65239;SHT30;51827;51.186;6.926;2024-03-07T04:10:21;19.02;51.96
65239;SHT30;51827;51.186;6.926;2024-03-07T04:11:21;19.00;51.98
65239;SHT30;51827;51.186;6.926;2024-03-07T04:12:22;19.02;51.93
65239;SHT30;51827;51.186;6.926;2024-03-07T04:13:22;19.02;51.96
65239;SHT30;51827;51.186;6.926;2024-03-07T04:14:22;19.02;51.98
65239;SHT30;51827;51.186;6.926;2024-03-07T04:15:23;19.02;51.99
65239;SHT30;51827;51.186;6.926;2024-03-07T04:16:23;19.02;51.98
65239;SHT30;51827;51.186;6.926;2024-03-07T04:17:23;19.03;51.98
65239;SHT30;51827;51.186;6.926;2024-03-07T04:18:23;19.03;51.97
65239;SHT30;51827;51.186;6.926;2024-03-07T04:19:24;18.99;51.97
65239;SHT30;51827;51.186;6.926;2024-03-07T04:20:24;19.03;51.93
65239;SHT30;51827;51.186;6.926;2024-03-07T04:21:24;19.00;51.97
65239;SHT30;51827;51.186;6.926;2024-03-07T04:22:25;19.02;51.96
65239;SHT30;51827;51.186;6.926;2024-03-07T04:23:25;19.00;51.96
65239;SHT30;51827;51.186;6.926;2024-03-07T04:24:25;19.05;52.03
65239;SHT30;51827;51.186;6.926;2024-03-07T04:25:26;19.02;52.27
65239;SHT30;51827;51.186;6.926;2024-03-07T04:26:26;19.02;52.41
65239;SHT30;51827;51.186;6.926;2024-03-07T04:27:26;19.03;52.48
65239;SHT30;51827;51.186;6.926;2024-03-07T04:28:27;19.03;52.43
65239;SHT30;51827;51.186;6.926;2024-03-07T04:29:27;19.05;52.18
65239;SHT30;51827;51.186;6.926;2024-03-07T04:30:27;19.02;52.12
65239;SHT30;51827;51.186;6.926;2024-03-07T04:31:28;19.05;52.16
65239;SHT30;51827;51.186;6.926;2024-03-07T04:32:28;19.05;52.16
65239;SHT30;51827;51.186;6.926;2024-03-07T04:33:28;19.03;52.16
65239;SHT30;51827;51.186;6.926;2024-03-07T04:34:29;19.03;52.15
65239;SHT30;51827;51.186;6.926;2024-03-07T04:35:29;19.05;52.10
65239;SHT30;51827;51.186;6.926;2024-03-07T04:36:29;19.06;52.07
65239;SHT30;51827;51.186;6.926;2024-03-07T04:37:29;19.03;52.08
65239;SHT30;51827;51.186;6.926;2024-03-07T04:38:29;19.02;52.19
65239;SHT30;51827;51.186;6.926;2024-03-07T04:39:30;19.05;52.14
65239;SHT30;51827;51.186;6.926;2024-03-07T04:40:30;19.03;52.17
65239;SHT30;51827;51.186;6.926;2024-03-07T04:41:31;19.02;52.21
65239;SHT30;51827;51.186;6.926;2024-03-07T04:42:31;19.03;52.29
65239;SHT30;51827;51.186;6.926;2024-03-07T04:43:31;19.03;52.36
65239;SHT30;51827;51.186;6.926;2024-03-07T04:44:33;19.05;52.39
65239;SHT30;51827;51.186;6.926;2024-03-07T04:45:33;19.03;52.42
65239;SHT30;51827;51.186;6.926;2024-03-07T04:46:33;19.02;52.46
65239;SHT30;51827;51.186;6.926;2024-03-07T04:47:34;18.98;52.47
65239;SHT30;51827;51.186;6.926;2024-03-07T04:48:34;19.03;52.51
65239;SHT30;51827;51.186;6.926;2024-03-07T04:49:34;19.02;52.52
65239;SHT30;51827;51.186;6.926;2024-03-07T04:50:35;19.02;52.60
65239;SHT30;51827;51.186;6.926;2024-03-07T04:51:35;19.03;52.51
65239;SHT30;51827;51.186;6.926;2024-03-07T04:52:35;19.02;52.55
65239;SHT30;51827;51.186;6.926;2024-03-07T04:53:35;19.02;52.56
65239;SHT30;51827;51.186;6.926;2024-03-07T04:54:35;19.06;52.99
65239;SHT30;51827;51.186;6.926;2024-03-07T04:55:36;19.05;54.28
65239;SHT30;51827;51.186;6.926;2024-03-07T04:56:36;19.06;55.28
65239;SHT30;51827;51.186;6.926;2024-03-07T04:57:37;19.08;56.08
65239;SHT30;51827;51.186;6.926;2024-03-07T04:58:37;19.10;55.98
65239;SHT30;51827;51.186;6.926;2024-03-07T04:59:38;19.09;55.66
65239;SHT30;51827;51.186;6.926;2024-03-07T05:00:38;19.09;54.97
65239;SHT30;51827;51.186;6.926;2024-03-07T05:01:39;19.09;54.63
65239;SHT30;51827;51.186;6.926;2024-03-07T05:02:43;19.12;54.57
65239;SHT30;51827;51.186;6.926;2024-03-07T05:03:43;19.12;54.47
65239;SHT30;51827;51.186;6.926;2024-03-07T05:04:43;19.09;54.35
65239;SHT30;51827;51.186;6.926;2024-03-07T05:05:43;19.10;54.37
65239;SHT30;51827;51.186;6.926;2024-03-07T05:06:44;19.10;54.68
65239;SHT30;51827;51.186;6.926;2024-03-07T05:07:44;19.10;54.58
65239;SHT30;51827;51.186;6.926;2024-03-07T05:08:44;19.12;54.29
65239;SHT30;51827;51.186;6.926;2024-03-07T05:09:45;19.10;54.03
65239;SHT30;51827;51.186;6.926;2024-03-07T05:10:45;19.10;53.96
65239;SHT30;51827;51.186;6.926;2024-03-07T05:11:45;19.09;53.99
65239;SHT30;51827;51.186;6.926;2024-03-07T05:12:45;19.10;54.12
65239;SHT30;51827;51.186;6.926;2024-03-07T05:13:46;19.10;54.12
65239;SHT30;51827;51.186;6.926;2024-03-07T05:14:46;19.09;53.85
65239;SHT30;51827;51.186;6.926;2024-03-07T05:15:46;19.09;53.68
65239;SHT30;51827;51.186;6.926;2024-03-07T05:16:46;19.10;53.62
65239;SHT30;51827;51.186;6.926;2024-03-07T05:17:47;19.12;53.53
65239;SHT30;51827;51.186;6.926;2024-03-07T05:18:47;19.08;53.47
65239;SHT30;51827;51.186;6.926;2024-03-07T05:19:48;19.09;53.37
65239;SHT30;51827;51.186;6.926;2024-03-07T05:20:48;19.10;53.34
65239;SHT30;51827;51.186;6.926;2024-03-07T05:21:48;19.06;53.32
65239;SHT30;51827;51.186;6.926;2024-03-07T05:22:48;19.08;53.19
65239;SHT30;51827;51.186;6.926;2024-03-07T05:23:49;19.06;53.17
65239;SHT30;51827;51.186;6.926;2024-03-07T05:24:49;19.09;53.15
65239;SHT30;51827;51.186;6.926;2024-03-07T05:25:49;19.08;53.08
65239;SHT30;51827;51.186;6.926;2024-03-07T05:26:49;19.06;53.08
65239;SHT30;51827;51.186;6.926;2024-03-07T05:27:49;19.08;53.04
65239;SHT30;51827;51.186;6.926;2024-03-07T05:28:50;19.06;52.98
65239;SHT30;51827;51.186;6.926;2024-03-07T05:29:50;19.08;53.00
65239;SHT30;51827;51.186;6.926;2024-03-07T05:30:50;19.06;52.96
65239;SHT30;51827;51.186;6.926;2024-03-07T05:31:51;19.06;53.01
65239;SHT30;51827;51.186;6.926;2024-03-07T05:32:51;19.08;52.97
65239;SHT30;51827;51.186;6.926;2024-03-07T05:33:51;19.03;52.95
65239;SHT30;51827;51.186;6.926;2024-03-07T05:34:52;19.08;52.94
65239;SHT30;51827;51.186;6.926;2024-03-07T05:35:52;19.06;52.91
65239;SHT30;51827;51.186;6.926;2024-03-07T05:36:52;19.08;52.82
65239;SHT30;51827;51.186;6.926;2024-03-07T05:37:53;19.06;52.84
65239;SHT30;51827;51.186;6.926;2024-03-07T05:38:53;19.05;52.80
65239;SHT30;51827;51.186;6.926;2024-03-07T05:39:53;19.06;52.81
65239;SHT30;51827;51.186;6.926;2024-03-07T05:40:53;19.06;52.78
65239;SHT30;51827;51.186;6.926;2024-03-07T05:41:54;19.06;52.75
65239;SHT30;51827;51.186;6.926;2024-03-07T05:42:54;19.06;52.77
65239;SHT30;51827;51.186;6.926;2024-03-07T05:43:54;19.06;52.74
65239;SHT30;51827;51.186;6.926;2024-03-07T05:44:55;19.06;52.73
65239;SHT30;51827;51.186;6.926;2024-03-07T05:45:55;19.03;52.69
65239;SHT30;51827;51.186;6.926;2024-03-07T05:46:55;19.05;52.64
65239;SHT30;51827;51.186;6.926;2024-03-07T05:47:55;19.03;52.63
65239;SHT30;51827;51.186;6.926;2024-03-07T05:48:56;19.06;52.60
65239;SHT30;51827;51.186;6.926;2024-03-07T05:49:56;19.06;52.63
65239;SHT30;51827;51.186;6.926;2024-03-07T05:50:56;19.05;52.54
65239;SHT30;51827;51.186;6.926;2024-03-07T05:51:56;19.05;52.63
65239;SHT30;51827;51.186;6.926;2024-03-07T05:52:56;19.05;52.61
65239;SHT30;51827;51.186;6.926;2024-03-07T05:53:57;19.02;52.57
65239;SHT30;51827;51.186;6.926;2024-03-07T05:54:57;19.03;52.54
65239;SHT30;51827;51.186;6.926;2024-03-07T05:55:57;19.06;52.52
65239;SHT30;51827;51.186;6.926;2024-03-07T05:56:58;19.06;52.51
65239;SHT30;51827;51.186;6.926;2024-03-07T05:57:58;19.03;52.49
65239;SHT30;51827;51.186;6.926;2024-03-07T05:58:58;19.03;52.51
65239;SHT30;51827;51.186;6.926;2024-03-07T05:59:58;19.05;52.52
65239;SHT30;51827;51.186;6.926;2024-03-07T06:00:59;19.05;52.49
65239;SHT30;51827;51.186;6.926;2024-03-07T06:01:59;19.05;52.50
65239;SHT30;51827;51.186;6.926;2024-03-07T06:02:59;19.06;52.48
65239;SHT30;51827;51.186;6.926;2024-03-07T06:04:04;19.02;52.46
65239;SHT30;51827;51.186;6.926;2024-03-07T06:05:05;18.99;52.47
65239;SHT30;51827;51.186;6.926;2024-03-07T06:06:05;19.03;52.46
65239;SHT30;51827;51.186;6.926;2024-03-07T06:07:05;19.00;52.48
65239;SHT30;51827;51.186;6.926;2024-03-07T06:08:06;19.03;52.43
65239;SHT30;51827;51.186;6.926;2024-03-07T06:09:08;19.02;52.41
65239;SHT30;51827;51.186;6.926;2024-03-07T06:10:09;19.03;52.46
65239;SHT30;51827;51.186;6.926;2024-03-07T06:11:09;19.03;52.38
65239;SHT30;51827;51.186;6.926;2024-03-07T06:12:09;19.03;52.40
65239;SHT30;51827;51.186;6.926;2024-03-07T06:13:14;19.03;52.37
65239;SHT30;51827;51.186;6.926;2024-03-07T06:14:14;19.03;52.42
65239;SHT30;51827;51.186;6.926;2024-03-07T06:15:15;19.03;52.40
65239;SHT30;51827;51.186;6.926;2024-03-07T06:16:15;19.02;52.37
65239;SHT30;51827;51.186;6.926;2024-03-07T06:17:15;19.02;52.39
65239;SHT30;51827;51.186;6.926;2024-03-07T06:18:15;19.03;52.36
65239;SHT30;51827;51.186;6.926;2024-03-07T06:19:16;19.03;52.37
65239;SHT30;51827;51.186;6.926;2024-03-07T06:20:16;19.03;52.37
65239;SHT30;51827;51.186;6.926;2024-03-07T06:21:16;19.03;52.32
65239;SHT30;51827;51.186;6.926;2024-03-07T06:22:16;19.02;52.32